Sheakleyville, Pennsylvania
Current Conditions -  °F | °C
As of 1:53 AM on Monday 22 Dec 2014 (Local Time) from KGKJ Reporting Station
Clear Clear  
Wind Chill: 25°   Ceiling: Unl
Heat Index: 25°   Visibility: 9mi
Dew Point: 19°   Wind: 3mph
Humidity: 78%   Direction: NA
Pressure: 30.15"   Gusts: NA
Location:  41.44°N, 80.21°W
Report Text: KGKJ 220653Z AUTO VRB03KT 9SM CLR M04/M07 A3015 RMK AO2 SLP224 T10391072 TSNO $
Loading
Personal Weather Stations






























Interactive Weather Map New forecast layout! Learn more

10-Day Weather Forecast

Advertisements
Track Severe Weather on mobile